Country
Station

 

Weather  for  Sioux Lookout, Ont.  -  Canada    Canada

  
14 °C (57 °F)
    
 
 

Current METAR for Sioux Lookout, Ont. is :

CYXL 021100Z 28003KT 15SM SKC 14/10 A2969 RMK SLP060 DENSITY ALT 1700FT

 

This is a report for Sioux Lookout, Ont. - Canada.
 
The report was made one hour and 10 minutes ago, at 11:00 UTC .
The wind was blowing at a speed of 1.5 meters per second (3.5 miles per hour) from west (280°).
 
The temperature was 14 °C (57 °F), with a dew-point at 10 °C (50 °F).
The atmospheric pressure was 1005 hPa (29.69 inHg).
The relative humidity was 76.8%.
 
The sky was clear.
 
The overall visibility was 24.1 kilometers (15.0 miles).
 

 
 
 
 

Country :   A   B   C   D   E   F   G   H   I   J   K   L   M   N   O   P   Q   R   S   T   U   V   W   Y   Z

 

Site Info  |  Disclaimer  |  Credits  |  Privacy
Contact us  |  Add to favorites
© 2013-2020 METARs - All rights reserved